Time;durP1;ratioP1;P1;durP2;ratioP2;P2;SDS_P1;SDS_P2;PMS_P1;PMS_P2;Temp;Humidity;BMP_temperature;BMP_pressure;BME280_temperature;BME280_humidity;BME280_pressure;Samples;Min_cycle;Max_cycle;Signal;HPM_P1;HPM_P2
2023/05/16 07:01:18;;;;;;;0.20;0.20;;;13.10;99.90;16.10;102216.00;;;;6277991;22;20465;-69
2023/05/16 07:03:44;;;;;;;0.10;0.10;;;13.00;99.90;16.10;102217.00;;;;6278412;22;20172;-69
2023/05/16 07:06:15;;;;;;;0.10;0.10;;;13.10;99.90;16.20;102215.00;;;;6277867;22;20147;-69
2023/05/16 07:08:41;;;;;;;0.10;0.10;;;13.00;99.90;16.70;102191.00;;;;6278096;22;20157;-69
2023/05/16 07:11:07;;;;;;;0.10;0.10;;;13.00;99.90;17.40;102198.00;;;;6251368;22;20164;-69
2023/05/16 07:13:33;;;;;;;2.77;0.37;;;13.80;99.90;16.70;102190.00;;;;6251149;22;20494;-69
2023/05/16 07:15:58;;;;;;;0.60;0.60;;;14.10;99.90;17.90;102187.00;;;;6225880;22;20151;-69
2023/05/16 07:19:05;;;;;;;0.40;0.40;;;14.70;99.90;18.10;102180.00;;;;6251344;22;20209;-69
2023/05/16 07:21:31;;;;;;;0.20;0.20;;;15.30;99.90;18.70;102161.00;;;;6250779;22;20224;-70
2023/05/16 07:24:00;;;;;;;8.77;0.40;;;15.80;99.90;20.40;102130.00;;;;6251317;22;20579;-69
2023/05/16 07:26:48;;;;;;;1.10;0.60;;;16.80;99.90;18.50;102135.00;;;;6278112;22;20508;-69
2023/05/16 07:29:14;;;;;;;0.10;0.10;;;16.90;99.90;20.80;102104.00;;;;6250461;22;20523;-69
2023/05/16 07:31:40;;;;;;;0.10;0.10;;;17.20;99.90;19.90;102126.00;;;;6251587;22;20177;-69
2023/05/16 07:34:06;;;;;;;0.10;0.10;;;17.50;99.90;20.70;102110.00;;;;6225457;22;20157;-70
2023/05/16 07:36:33;;;;;;;0.20;0.20;;;17.30;99.90;20.70;102102.00;;;;6251347;22;20137;-69
2023/05/16 07:39:02;;;;;;;0.10;0.10;;;17.60;99.90;21.30;102151.00;;;;6278130;22;20278;-65
2023/05/16 07:41:35;;;;;;;0.20;0.20;;;17.80;99.90;20.30;102171.00;;;;6250957;22;20520;-70
2023/05/16 07:44:04;;;;;;;5.50;0.52;;;18.20;99.90;21.00;102161.00;;;;6225627;22;20311;-73
2023/05/16 07:46:37;;;;;;;1.02;1.02;;;18.10;99.90;19.30;102187.00;;;;6277552;22;20142;-73
2023/05/16 07:49:03;;;;;;;0.30;0.20;;;17.30;99.90;19.10;102186.00;;;;6225379;22;20157;-72
2023/05/16 07:51:35;;;;;;;1.88;0.43;;;16.70;99.90;19.90;102181.00;;;;6250670;22;20471;-73
2023/05/16 07:54:23;;;;;;;0.20;0.20;;;16.80;99.90;18.80;102145.00;;;;6224239;22;20187;-71
2023/05/16 07:57:16;;;;;;;0.20;0.20;;;16.30;99.90;20.70;102138.00;;;;6225480;22;20153;-72
2023/05/16 07:59:46;;;;;;;0.30;0.30;;;17.10;99.90;19.10;102173.00;;;;6251846;22;20471;-71
2023/05/16 08:02:12;;;;;;;0.10;0.10;;;16.80;99.90;20.60;102171.00;;;;6275167;22;20476;-69
2023/05/16 08:04:40;;;;;;;0.10;0.10;;;17.40;99.90;19.60;102203.00;;;;6273961;22;20147;-71
2023/05/16 08:07:11;;;;;;;0.20;0.20;;;16.70;99.90;18.10;102216.00;;;;6275424;22;20187;-71
2023/05/16 08:09:42;;;;;;;0.20;0.20;;;16.00;99.90;18.30;102202.00;;;;6274099;22;20151;-69
2023/05/16 08:12:23;;;;;;;0.10;0.10;;;15.70;99.90;19.20;102208.00;;;;6276403;22;20145;-69
2023/05/16 08:14:52;;;;;;;0.20;0.20;;;15.50;99.90;19.30;102169.00;;;;6249520;22;20150;-69
2023/05/16 08:17:26;;;;;;;0.52;0.52;;;16.50;99.90;20.50;102138.00;;;;6273550;22;20148;-71
2023/05/16 08:19:55;;;;;;;2.28;0.65;;;17.30;99.90;21.20;102176.00;;;;6276183;22;20145;-72
2023/05/16 08:22:25;;;;;;;0.10;0.10;;;18.10;99.90;20.90;102194.00;;;;6276899;22;20177;-73
2023/05/16 08:24:57;;;;;;;4.20;1.17;;;18.20;99.90;21.20;102204.00;;;;6275318;22;20149;-71
2023/05/16 08:27:26;;;;;;;5.05;1.65;;;18.70;99.90;19.30;102214.00;;;;6250893;22;20653;-70
2023/05/16 08:30:07;;;;;;;0.32;0.32;;;17.70;99.90;19.80;102218.00;;;;6276361;22;20530;-71
2023/05/16 08:32:33;;;;;;;1.50;0.82;;;17.20;99.90;18.30;102236.00;;;;6275530;22;20148;-71
2023/05/16 08:34:59;;;;;;;1.42;1.33;;;16.60;99.90;19.60;102209.00;;;;6275661;22;20138;-72
2023/05/16 08:37:28;;;;;;;0.10;0.10;;;17.10;99.90;21.20;102208.00;;;;6277675;22;20137;-72
2023/05/16 08:39:57;;;;;;;0.65;0.65;;;17.70;99.90;21.40;102200.00;;;;6276390;22;20156;-73
2023/05/16 08:42:30;;;;;;;0.95;0.90;;;17.90;99.90;18.90;102243.00;;;;6275852;22;20180;-73
2023/05/16 08:44:59;;;;;;;4.20;1.80;;;17.10;99.90;19.70;102221.00;;;;6275479;22;20161;-73
2023/05/16 08:47:50;;;;;;;2.35;1.05;;;16.80;99.90;18.30;102236.00;;;;6277113;22;20133;-72
2023/05/16 08:50:22;;;;;;;0.40;0.40;;;16.50;99.90;20.60;102155.00;;;;6274487;22;20144;-72
2023/05/16 08:52:52;;;;;;;0.65;0.55;;;17.20;99.90;19.50;102214.00;;;;6250448;22;20184;-73
2023/05/16 08:55:23;;;;;;;0.30;0.30;;;17.40;99.90;20.50;102191.00;;;;6275973;22;20470;-73
2023/05/16 08:57:53;;;;;;;0.30;0.30;;;17.60;99.90;20.40;102212.00;;;;6275662;22;20623;-73
2023/05/16 09:00:30;;;;;;;0.28;0.28;;;18.20;99.90;18.80;102217.00;;;;6275388;22;20173;-73
2023/05/16 09:02:56;;;;;;;0.20;0.20;;;17.30;99.90;19.50;102220.00;;;;6276182;22;20207;-72
2023/05/16 09:05:28;;;;;;;0.45;0.45;;;17.20;99.90;21.10;102198.00;;;;6277609;22;20141;-72
2023/05/16 09:07:55;;;;;;;0.10;0.10;;;17.30;99.90;23.30;102148.00;;;;6249903;22;20164;-73
2023/05/16 09:10:21;;;;;;;0.10;0.10;;;18.80;99.90;22.90;102222.00;;;;6275849;22;20159;-72
2023/05/16 09:12:46;;;;;;;0.10;0.10;;;19.70;99.90;22.90;102209.00;;;;6276721;22;20157;-72
2023/05/16 09:15:20;;;;;;;0.47;0.32;;;19.20;99.90;21.60;102219.00;;;;6275571;22;20236;-71
2023/05/16 09:17:52;;;;;;;7.32;2.72;;;19.10;99.90;22.60;102219.00;;;;6250657;22;20207;-71
2023/05/16 09:20:20;;;;;;;0.20;0.20;;;19.20;99.90;22.60;102222.00;;;;6275907;22;20195;-72
2023/05/16 09:22:52;;;;;;;0.10;0.10;;;19.10;99.90;23.10;102199.00;;;;6275476;22;20601;-72
2023/05/16 09:25:23;;;;;;;0.10;0.10;;;19.50;99.90;24.60;102180.00;;;;6274543;22;20145;-72
2023/05/16 09:28:09;;;;;;;0.20;0.20;;;20.60;99.90;23.60;102204.00;;;;6273443;22;20526;-72
2023/05/16 09:30:45;;;;;;;0.10;0.10;;;20.60;99.90;24.30;102192.00;;;;6251336;22;20169;-72
2023/05/16 09:33:29;;;;;;;0.10;0.10;;;21.00;99.90;23.00;102221.00;;;;6275376;22;20195;-73
2023/05/16 09:35:59;;;;;;;0.10;0.10;;;20.40;99.90;23.40;102220.00;;;;6249983;22;20161;-70
2023/05/16 09:38:52;;;;;;;1.25;0.40;;;20.10;99.90;23.30;102201.00;;;;6275127;22;20159;-72
2023/05/16 09:42:05;;;;;;;0.10;0.10;;;20.30;99.90;22.20;102210.00;;;;6275127;22;20632;-71
2023/05/16 09:44:33;;;;;;;0.10;0.10;;;20.10;99.90;21.70;102206.00;;;;6157549;23;20186;-71
2023/05/16 09:47:11;;;;;;;0.10;0.10;;;19.20;99.90;21.60;102204.00;;;;6258992;22;20193;-69
2023/05/16 09:49:47;;;;;;;1.15;0.50;;;18.90;99.90;21.30;102214.00;;;;6249184;22;20161;-72
2023/05/16 09:52:19;;;;;;;0.22;0.22;;;18.90;99.90;19.90;102225.00;;;;6275246;22;20137;-71
2023/05/16 09:54:50;;;;;;;0.20;0.20;;;18.10;99.90;20.20;102214.00;;;;6275530;22;20140;-71
2023/05/16 09:58:00;;;;;;;0.30;0.30;;;17.70;99.90;21.60;102209.00;;;;6250433;22;20164;-71
2023/05/16 10:00:50;;;;;;;3.72;0.95;;;18.50;99.90;22.70;102217.00;;;;6251181;22;20173;-71
2023/05/16 10:03:16;;;;;;;0.20;0.20;;;19.40;99.90;22.60;102202.00;;;;6245751;23;20304;-69
2023/05/16 10:06:24;;;;;;;1.05;0.95;;;19.50;99.90;21.40;102225.00;;;;6219413;23;20154;-73
2023/05/16 10:08:50;;;;;;;0.40;0.40;;;18.80;99.90;19.30;102183.00;;;;6070444;23;20160;-73
2023/05/16 10:11:35;;;;;;;0.10;0.10;;;17.60;99.90;21.40;102217.00;;;;6070620;23;20165;-73
2023/05/16 10:14:18;;;;;;;0.10;0.10;;;17.80;99.90;21.50;102218.00;;;;6069981;23;20256;-73
2023/05/16 10:17:11;;;;;;;0.93;0.30;;;18.10;99.90;20.70;102214.00;;;;6070415;23;20145;-71
2023/05/16 10:19:39;;;;;;;0.10;0.10;;;18.30;99.90;19.80;102225.00;;;;6190706;23;20158;-71
2023/05/16 10:33:49;;;;;;;0.35;0.35;;;18.70;99.90;21.20;102228.00;;;;5191465;27;21688;-71
2023/05/16 10:36:21;;;;;;;0.50;0.50;;;18.90;99.90;22.60;102206.00;;;;5152853;27;20186;-69
2023/05/16 10:39:01;;;;;;;0.20;0.20;;;19.30;99.90;21.80;102219.00;;;;5137755;27;20629;-71
2023/05/16 10:41:39;;;;;;;0.10;0.10;;;19.20;99.90;21.60;102228.00;;;;5167244;27;20178;-71
2023/05/16 10:44:16;;;;;;;0.10;0.10;;;18.70;99.90;22.80;102205.00;;;;5154274;27;20181;-70
2023/05/16 10:47:07;;;;;;;0.82;0.63;;;19.30;99.90;21.60;102178.00;;;;5154286;27;20186;-69
2023/05/16 10:49:36;;;;;;;1.55;1.55;;;19.10;99.90;21.50;102228.00;;;;5113834;27;20201;-69
2023/05/16 10:52:12;;;;;;;0.10;0.10;;;18.70;99.90;20.90;102206.00;;;;5154557;27;20187;-68
2023/05/16 10:54:54;;;;;;;0.20;0.20;;;18.40;99.90;21.70;102198.00;;;;5153381;27;20208;-73
2023/05/16 10:57:23;;;;;;;0.10;0.10;;;19.00;99.90;22.70;102223.00;;;;5153644;27;20186;-73
2023/05/16 10:59:50;;;;;;;0.45;0.45;;;19.50;99.90;20.80;102229.00;;;;5171323;27;20644;-72
2023/05/16 11:02:43;;;;;;;2.60;0.38;;;18.90;99.90;22.10;102209.00;;;;5133641;27;20194;-72
2023/05/16 11:05:41;;;;;;;0.20;0.17;;;19.10;99.90;22.30;102224.00;;;;5145369;27;20182;-72
2023/05/16 11:08:28;;;;;;;2.38;0.50;;;18.80;99.90;20.50;102191.00;;;;5125931;27;20189;-72
2023/05/16 11:11:45;;;;;;;0.10;0.10;;;18.00;99.90;21.50;102236.00;;;;5149714;27;20179;-72
2023/05/16 11:14:46;;;;;;;7.72;0.85;;;18.30;99.90;22.50;102245.00;;;;5122772;27;20175;-72
2023/05/16 11:17:30;;;;;;;0.10;0.10;;;19.60;99.90;24.10;102223.00;;;;5146200;27;20231;-72
2023/05/16 11:20:06;;;;;;;1.08;0.40;;;20.30;99.90;24.00;102231.00;;;;5134374;27;20227;-72
2023/05/16 11:23:30;;;;;;;4.50;0.98;;;20.70;99.90;22.80;102237.00;;;;5136201;27;20205;-72
2023/05/16 11:26:21;;;;;;;0.10;0.10;;;20.60;99.90;22.70;102231.00;;;;5029635;28;20204;-72
2023/05/16 11:29:12;;;;;;;4.90;0.47;;;19.80;99.90;22.70;102191.00;;;;5049807;28;20186;-72
2023/05/16 11:31:42;;;;;;;1.95;0.65;;;20.10;99.90;24.40;102215.00;;;;5038390;28;20367;-72
2023/05/16 11:34:24;;;;;;;0.20;0.20;;;20.70;99.90;23.00;102220.00;;;;5047612;28;20656;-68
2023/05/16 11:36:55;;;;;;;0.10;0.10;;;20.70;99.90;23.80;102219.00;;;;5150570;27;20273;-68
2023/05/16 11:40:07;;;;;;;0.47;0.47;;;20.50;99.90;23.00;102215.00;;;;5153351;27;20185;-67
2023/05/16 11:44:04;;;;;;;0.10;0.10;;;20.30;99.90;22.60;102211.00;;;;5153452;27;20576;-68
2023/05/16 11:47:00;;;;;;;0.28;0.28;;;19.70;99.90;22.10;102223.00;;;;5033427;28;20195;-68
2023/05/16 11:49:48;;;;;;;0.47;0.47;;;19.30;99.90;21.50;102223.00;;;;5002805;28;20203;-68
2023/05/16 11:52:45;;;;;;;0.20;0.20;;;18.70;99.90;20.00;102243.00;;;;5031318;28;20218;-68
2023/05/16 11:55:30;;;;;;;0.20;0.20;;;18.10;99.90;20.80;102185.00;;;;5015751;28;20258;-68
2023/05/16 11:58:02;;;;;;;0.10;0.10;;;17.60;99.90;20.80;102190.00;;;;5013993;28;20199;-68
2023/05/16 12:00:28;;;;;;;1.27;0.80;;;17.70;99.90;20.90;102182.00;;;;5016645;28;20196;-68
2023/05/16 12:03:00;;;;;;;1.87;0.30;;;17.90;99.90;19.50;102235.00;;;;5080549;27;20201;-67
2023/05/16 12:05:27;;;;;;;0.50;0.50;;;17.30;99.90;20.00;102223.00;;;;5118218;27;20645;-68
2023/05/16 12:07:56;;;;;;;0.43;0.43;;;17.20;99.90;20.80;102225.00;;;;5135497;27;20180;-67
2023/05/16 12:10:25;;;;;;;0.27;0.27;;;17.50;99.90;20.50;102227.00;;;;5138499;27;20554;-68
2023/05/16 12:12:52;;;;;;;0.20;0.20;;;17.50;99.90;20.70;102196.00;;;;5139217;27;20202;-68
2023/05/16 12:15:18;;;;;;;0.10;0.10;;;17.80;99.90;21.90;102198.00;;;;5138403;27;20552;-68
2023/05/16 12:18:03;;;;;;;0.20;0.20;;;18.40;99.90;21.20;102235.00;;;;5131693;27;20652;-68
2023/05/16 12:20:44;;;;;;;0.17;0.17;;;18.20;99.90;20.10;102234.00;;;;5156899;27;20215;-67
2023/05/16 12:23:19;;;;;;;0.10;0.10;;;17.70;99.90;21.80;102223.00;;;;5103572;27;20204;-67
2023/05/16 12:25:54;;;;;;;0.10;0.10;;;18.00;99.90;21.70;102215.00;;;;5153710;27;20643;-67
2023/05/16 12:28:34;;;;;;;0.10;0.10;;;18.40;99.90;21.50;102246.00;;;;5141890;27;20194;-67
2023/05/16 12:31:37;;;;;;;0.40;0.30;;;18.70;99.90;20.50;102232.00;;;;5114285;27;20174;-67
2023/05/16 12:34:22;;;;;;;0.10;0.10;;;17.90;99.90;20.90;102234.00;;;;5156091;27;20200;-68
2023/05/16 12:37:10;;;;;;;0.10;0.10;;;17.90;99.90;20.70;102227.00;;;;5138829;27;20197;-67
2023/05/16 12:43:27;;;;;;;0.23;0.20;;;18.00;99.90;20.20;102239.00;;;;5098565;27;20632;-67
2023/05/16 12:46:11;;;;;;;0.23;0.23;;;17.40;99.90;20.10;102238.00;;;;5116077;27;20207;-67
2023/05/16 12:49:12;;;;;;;5.20;0.77;;;17.50;99.90;20.70;102231.00;;;;5130751;27;20208;-68
2023/05/16 12:51:52;;;;;;;0.20;0.20;;;17.50;99.90;20.70;102235.00;;;;5138875;27;20235;-67
2023/05/16 12:54:22;;;;;;;1.90;0.50;;;17.90;99.90;20.50;102194.00;;;;5136418;27;20660;-67
2023/05/16 12:56:54;;;;;;;0.10;0.10;;;17.60;99.90;19.60;102205.00;;;;5111100;27;20292;-67
2023/05/16 12:59:20;;;;;;;0.10;0.10;;;17.30;99.90;20.00;102229.00;;;;5135017;27;20192;-67
2023/05/16 13:01:46;;;;;;;0.10;0.10;;;17.20;99.90;20.90;102190.00;;;;5137905;27;20191;-67
2023/05/16 13:04:18;;;;;;;0.10;0.10;;;17.50;99.90;21.30;102208.00;;;;5137985;27;20274;-67
2023/05/16 13:06:58;;;;;;;2.80;0.40;;;17.80;99.90;21.00;102235.00;;;;5137819;27;20177;-67
2023/05/16 13:09:31;;;;;;;0.10;0.10;;;17.90;99.90;19.70;102233.00;;;;5135328;27;20172;-67
2023/05/16 13:12:00;;;;;;;4.10;0.97;;;17.60;99.90;18.90;102193.00;;;;5127844;27;20202;-67
2023/05/16 13:14:26;;;;;;;0.27;0.27;;;17.00;99.90;18.40;102232.00;;;;5137540;27;20742;-67
2023/05/16 13:17:07;;;;;;;0.10;0.10;;;16.80;99.90;20.50;102223.00;;;;5137166;27;20185;-67
2023/05/16 13:19:40;;;;;;;0.73;0.53;;;16.90;99.90;19.20;102189.00;;;;5138672;27;20191;-67
2023/05/16 13:22:06;;;;;;;0.23;0.23;;;17.00;99.90;19.70;102238.00;;;;5137238;27;20184;-67
2023/05/16 13:24:33;;;;;;;0.30;0.30;;;16.60;99.90;20.10;102209.00;;;;5137664;27;20284;-67
2023/05/16 13:27:04;;;;;;;0.50;0.30;;;17.00;99.90;19.10;102228.00;;;;5137066;27;20655;-67
2023/05/16 13:29:50;;;;;;;0.10;0.10;;;16.80;99.90;18.90;102229.00;;;;5137443;27;20194;-67
2023/05/16 13:32:21;;;;;;;0.10;0.10;;;16.40;99.90;19.20;102240.00;;;;5117130;27;20207;-67
2023/05/16 13:34:55;;;;;;;0.10;0.10;;;16.50;99.90;19.90;102234.00;;;;5121107;27;20200;-67
2023/05/16 13:37:23;;;;;;;0.53;0.53;;;16.70;99.90;20.20;102234.00;;;;5114691;27;20180;-67
2023/05/16 13:39:58;;;;;;;0.20;0.20;;;17.00;99.90;19.80;102246.00;;;;5115872;27;20545;-67
2023/05/16 13:42:27;;;;;;;0.23;0.23;;;17.00;99.90;20.00;102238.00;;;;5137496;27;20310;-67
2023/05/16 13:44:53;;;;;;;0.20;0.20;;;16.90;99.90;20.60;102243.00;;;;5155135;27;20179;-67
2023/05/16 13:47:25;;;;;;;0.43;0.27;;;17.20;99.90;19.60;102246.00;;;;5136817;27;20251;-67
2023/05/16 13:50:11;;;;;;;0.10;0.10;;;17.00;99.90;19.90;102230.00;;;;5136656;27;20648;-67
2023/05/16 13:52:42;;;;;;;0.10;0.10;;;17.10;99.90;20.80;102213.00;;;;5133027;27;20196;-69
2023/05/16 13:55:14;;;;;;;0.20;0.20;;;17.10;99.90;20.70;102239.00;;;;5119844;27;20183;-69
2023/05/16 13:57:46;;;;;;;0.17;0.17;;;17.30;99.90;20.30;102228.00;;;;5143646;27;20202;-69
2023/05/16 14:00:28;;;;;;;0.10;0.10;;;17.20;99.90;20.30;102241.00;;;;5117566;27;20237;-68
2023/05/16 14:02:57;;;;;;;0.27;0.27;;;17.10;99.90;20.40;102232.00;;;;5147930;27;20181;-69
2023/05/16 14:05:58;;;;;;;0.43;0.43;;;17.10;99.90;19.50;102256.00;;;;5129687;27;20283;-69
2023/05/16 14:09:12;;;;;;;0.10;0.10;;;16.70;99.90;19.80;102256.00;;;;5124976;27;20201;-69
2023/05/16 14:11:43;;;;;;;0.10;0.10;;;16.70;99.90;19.50;102258.00;;;;5152732;27;20207;-69
2023/05/16 14:14:12;;;;;;;0.10;0.10;;;16.60;99.90;18.90;102255.00;;;;5135934;27;20195;-69
2023/05/16 14:17:02;;;;;;;0.10;0.10;;;16.40;99.90;20.20;102254.00;;;;5129292;27;20182;-68
2023/05/16 14:19:34;;;;;;;1.90;0.40;;;16.50;99.90;19.90;102247.00;;;;5136329;27;20227;-69
2023/05/16 14:22:03;;;;;;;0.70;0.30;;;16.70;99.90;20.20;102251.00;;;;5153881;27;20206;-69
2023/05/16 14:24:34;;;;;;;0.53;0.53;;;16.80;99.90;20.50;102240.00;;;;5135985;27;20541;-68
2023/05/16 14:27:01;;;;;;;0.20;0.20;;;17.00;99.90;19.50;102245.00;;;;5154833;27;20190;-68
2023/05/16 14:29:47;;;;;;;0.10;0.10;;;16.70;99.90;20.70;102206.00;;;;5136192;27;20264;-69
2023/05/16 14:32:24;;;;;;;0.30;0.30;;;16.80;99.90;20.30;102197.00;;;;5136718;27;20207;-68
2023/05/16 14:35:04;;;;;;;0.10;0.10;;;16.70;99.90;20.20;102234.00;;;;5118960;27;20185;-70
2023/05/16 14:37:35;;;;;;;1.17;0.87;;;17.00;99.90;20.90;102224.00;;;;5125080;27;20179;-70
2023/05/16 14:40:32;;;;;;;0.10;0.10;;;17.20;99.90;21.00;102230.00;;;;5152438;27;20187;-69
2023/05/16 14:43:06;;;;;;;0.10;0.10;;;17.40;99.90;20.70;102233.00;;;;5146956;27;20186;-70
2023/05/16 14:45:49;;;;;;;0.10;0.10;;;17.40;99.90;20.60;102238.00;;;;5106655;27;20240;-69
2023/05/16 14:48:38;;;;;;;1.70;0.70;;;17.30;99.90;20.70;102189.00;;;;5118484;27;20186;-69
2023/05/16 14:51:06;;;;;;;0.23;0.23;;;17.40;99.90;21.20;102221.00;;;;5116415;27;20193;-69
2023/05/16 14:53:52;;;;;;;0.43;0.43;;;17.60;99.90;21.80;102236.00;;;;5131386;27;20184;-69
2023/05/16 14:56:18;;;;;;;0.30;0.20;;;18.00;99.90;21.50;102241.00;;;;5114905;28;20233;-70
2023/05/16 14:58:47;;;;;;;0.10;0.10;;;18.10;99.90;21.80;102236.00;;;;5117430;27;20266;-69
2023/05/16 15:01:27;;;;;;;0.10;0.10;;;18.30;99.90;22.10;102231.00;;;;5135647;27;20243;-69
2023/05/16 15:04:10;;;;;;;0.10;0.10;;;18.40;99.90;21.20;102235.00;;;;5103676;27;20192;-70
2023/05/16 15:06:51;;;;;;;0.10;0.10;;;18.20;99.90;21.90;102243.00;;;;5118727;27;20212;-70
2023/05/16 15:09:28;;;;;;;0.10;0.10;;;18.30;99.90;22.10;102238.00;;;;5135492;27;20237;-70
2023/05/16 15:11:54;;;;;;;0.17;0.17;;;18.30;99.90;22.20;102237.00;;;;5135456;27;20211;-71
2023/05/16 15:14:25;;;;;;;0.20;0.20;;;18.40;99.90;21.00;102257.00;;;;5135120;27;20189;-70
2023/05/16 15:16:55;;;;;;;0.10;0.10;;;18.10;99.90;20.90;102262.00;;;;5136164;27;20176;-70
2023/05/16 15:19:39;;;;;;;0.10;0.10;;;17.60;99.90;21.60;102248.00;;;;5137864;27;20545;-70
2023/05/16 15:22:09;;;;;;;0.27;0.27;;;17.60;99.90;20.60;102257.00;;;;5139788;27;20270;-70
2023/05/16 15:24:38;;;;;;;0.10;0.10;;;17.50;99.90;20.70;102256.00;;;;5152541;27;20182;-70
2023/05/16 15:27:13;;;;;;;0.10;0.10;;;17.20;99.90;20.30;102259.00;;;;5137899;27;20178;-70
2023/05/16 15:29:49;;;;;;;0.13;0.13;;;17.10;99.90;20.60;102249.00;;;;5139622;27;20187;-70
2023/05/16 15:32:26;;;;;;;0.20;0.20;;;17.20;99.90;20.20;102249.00;;;;5122396;27;20202;-70
2023/05/16 15:35:11;;;;;;;2.57;1.23;;;17.20;99.90;19.50;102254.00;;;;5156681;27;20175;-70
2023/05/16 15:37:37;;;;;;;0.10;0.10;;;16.90;99.90;20.90;102235.00;;;;5137560;27;20232;-70
2023/05/16 15:40:15;;;;;;;0.10;0.10;;;17.10;99.90;21.40;102239.00;;;;5122425;27;20217;-70
2023/05/16 15:42:47;;;;;;;0.10;0.10;;;17.40;99.90;20.70;102251.00;;;;5138626;27;20195;-70
2023/05/16 15:45:27;;;;;;;0.10;0.10;;;17.40;99.90;20.00;102234.00;;;;5122086;27;20191;-70
2023/05/16 15:47:59;;;;;;;0.20;0.20;;;17.20;99.90;19.70;102266.00;;;;5154288;27;20182;-70
2023/05/16 15:50:31;;;;;;;2.83;0.40;;;16.80;99.90;20.00;102263.00;;;;5122108;27;20202;-70
2023/05/16 15:53:15;;;;;;;0.10;0.10;;;16.70;99.90;19.10;102275.00;;;;5137524;27;20663;-70
2023/05/16 15:55:46;;;;;;;1.00;0.33;;;16.50;99.90;18.90;102275.00;;;;5119127;27;20182;-70
2023/05/16 15:58:15;;;;;;;0.10;0.10;;;16.30;99.90;18.70;102272.00;;;;5114103;27;20266;-70
2023/05/16 16:00:44;;;;;;;0.20;0.20;;;16.20;99.90;18.60;102228.00;;;;5126584;27;20186;-70
2023/05/16 16:03:17;;;;;;;0.10;0.10;;;16.10;99.90;20.30;102271.00;;;;5136544;27;20182;-70
2023/05/16 16:05:57;;;;;;;0.10;0.10;;;16.50;99.90;20.70;102264.00;;;;5123227;27;20191;-70
2023/05/16 16:08:34;;;;;;;0.10;0.10;;;16.90;99.90;20.90;102273.00;;;;5152738;27;20194;-70
2023/05/16 16:11:09;;;;;;;1.20;0.20;;;17.10;99.90;19.50;102245.00;;;;5157136;27;20261;-70
2023/05/16 16:13:53;;;;;;;0.10;0.10;;;16.90;99.90;19.20;102232.00;;;;5132170;27;20181;-70
2023/05/16 16:16:19;;;;;;;0.10;0.10;;;16.30;99.90;19.20;102279.00;;;;5138580;27;20258;-70
2023/05/16 16:18:49;;;;;;;0.10;0.10;;;16.40;99.90;19.70;102275.00;;;;5157163;27;20181;-70
2023/05/16 16:21:18;;;;;;;0.10;0.10;;;16.40;99.90;19.80;102274.00;;;;5137053;27;20182;-71
2023/05/16 16:23:48;;;;;;;0.67;0.40;;;16.50;99.90;20.20;102262.00;;;;5134276;27;20196;-70
2023/05/16 16:26:14;;;;;;;0.10;0.10;;;16.80;99.90;20.70;102264.00;;;;5120186;27;20262;-70
2023/05/16 16:28:40;;;;;;;0.10;0.10;;;17.10;99.90;20.90;102230.00;;;;5138231;27;20640;-70
2023/05/16 16:31:05;;;;;;;0.20;0.20;;;17.40;99.90;20.60;102266.00;;;;5137492;27;20180;-70
2023/05/16 16:33:51;;;;;;;0.10;0.10;;;17.30;99.90;20.10;102280.00;;;;5144944;27;20200;-70
2023/05/16 16:36:27;;;;;;;0.10;0.10;;;17.20;99.90;20.00;102283.00;;;;5129682;27;20683;-70
2023/05/16 16:39:16;;;;;;;0.10;0.10;;;16.90;99.90;20.60;102276.00;;;;5153810;27;20711;-70
2023/05/16 16:42:01;;;;;;;0.30;0.30;;;17.00;99.90;19.70;102293.00;;;;5136997;27;20189;-69
2023/05/16 16:44:28;;;;;;;0.10;0.10;;;16.90;99.90;20.30;102236.00;;;;5134841;27;20201;-70
2023/05/16 16:46:54;;;;;;;0.20;0.20;;;16.80;99.90;20.90;102266.00;;;;5149026;27;20238;-69
2023/05/16 16:49:20;;;;;;;0.10;0.10;;;17.00;99.90;20.80;102281.00;;;;5113223;27;20534;-69
2023/05/16 16:51:46;;;;;;;0.20;0.20;;;17.10;99.90;20.30;102252.00;;;;5137282;27;20224;-69
2023/05/16 16:54:12;;;;;;;0.53;0.53;;;17.10;99.90;19.50;102292.00;;;;5137158;27;20632;-70
2023/05/16 16:56:38;;;;;;;0.10;0.10;;;16.60;99.90;19.60;102299.00;;;;5155829;27;20230;-69
2023/05/16 16:59:33;;;;;;;0.20;0.20;;;16.30;99.90;19.30;102304.00;;;;5145538;27;20543;-69
2023/05/16 17:02:02;;;;;;;0.20;0.20;;;16.30;99.90;19.90;102281.00;;;;5136792;27;20193;-69
2023/05/16 17:04:33;;;;;;;0.10;0.10;;;16.30;99.90;19.10;102307.00;;;;5148251;27;20637;-69
2023/05/16 17:07:19;;;;;;;0.10;0.10;;;16.10;99.90;19.80;102281.00;;;;5117360;27;20610;-69
2023/05/16 17:10:25;;;;;;;0.10;0.10;;;16.10;99.90;19.30;102305.00;;;;5145745;27;20227;-69
2023/05/16 17:13:32;;;;;;;0.10;0.10;;;16.20;99.90;19.10;102302.00;;;;5137406;27;20572;-69
2023/05/16 17:16:18;;;;;;;0.10;0.10;;;16.20;99.90;19.70;102294.00;;;;5150889;27;20644;-69
2023/05/16 17:19:42;;;;;;;0.30;0.30;;;16.10;99.90;19.90;102308.00;;;;5111002;27;20266;-69
2023/05/16 17:22:28;;;;;;;0.33;0.33;;;16.30;99.90;19.80;102303.00;;;;5150926;27;20193;-69
2023/05/16 17:25:19;;;;;;;0.10;0.10;;;16.20;99.90;20.00;102312.00;;;;5108026;27;20635;-69
2023/05/16 17:28:20;;;;;;;0.10;0.10;;;16.30;99.90;20.00;102275.00;;;;5108020;27;20201;-69
2023/05/16 17:31:06;;;;;;;0.10;0.10;;;16.20;99.90;20.40;102314.00;;;;5113429;27;20181;-69
2023/05/16 17:34:09;;;;;;;0.43;0.43;;;16.50;99.90;19.10;102324.00;;;;5135710;27;20192;-69
2023/05/16 17:37:16;;;;;;;1.40;0.57;;;16.10;99.90;19.20;102311.00;;;;5136911;27;20191;-69
2023/05/16 17:40:25;;;;;;;0.10;0.10;;;15.90;99.90;19.50;102296.00;;;;5107334;27;20183;-69
2023/05/16 17:43:15;;;;;;;0.20;0.20;;;16.00;99.90;18.60;102354.00;;;;5136099;27;20692;-69
2023/05/16 17:46:01;;;;;;;0.20;0.20;;;15.80;99.90;18.20;102348.00;;;;5136787;27;20199;-69
2023/05/16 17:48:53;;;;;;;0.30;0.30;;;15.50;99.90;19.10;102343.00;;;;5108078;27;20180;-68
2023/05/16 17:51:28;;;;;;;0.20;0.20;;;15.60;99.90;18.40;102352.00;;;;5121816;27;20538;-68
2023/05/16 17:54:18;;;;;;;0.10;0.10;;;15.30;99.90;18.90;102353.00;;;;5115514;27;20193;-69
2023/05/16 17:56:54;;;;;;;0.40;0.40;;;15.40;99.90;18.40;102348.00;;;;5120471;27;20204;-70
2023/05/16 17:59:58;;;;;;;0.10;0.10;;;15.30;99.90;18.50;102361.00;;;;5152706;27;20634;-69
2023/05/16 18:02:51;;;;;;;0.10;0.10;;;15.40;99.90;19.00;102348.00;;;;5135391;27;20195;-69
2023/05/16 18:06:00;;;;;;;0.40;0.40;;;15.30;99.90;19.40;102368.00;;;;5115022;27;20244;-69
2023/05/16 18:09:06;;;;;;;0.57;0.57;;;15.50;99.90;18.80;102375.00;;;;5107004;27;20184;-69
2023/05/16 18:12:10;;;;;;;1.33;1.23;;;15.40;99.90;19.30;102372.00;;;;5117097;27;20279;-69
2023/05/16 18:14:58;;;;;;;0.80;0.80;;;15.40;99.90;18.40;102373.00;;;;5147585;27;20696;-69
2023/05/16 18:17:45;;;;;;;0.70;0.70;;;15.30;99.90;17.90;102382.00;;;;5117484;27;20195;-69
2023/05/16 18:20:49;;;;;;;1.07;0.53;;;14.90;99.90;18.10;102369.00;;;;5131615;27;20195;-69
2023/05/16 18:23:53;;;;;;;0.10;0.10;;;14.90;99.90;19.00;102354.00;;;;5134229;27;20198;-69
2023/05/16 18:26:48;;;;;;;0.10;0.10;;;15.00;99.90;19.00;102309.00;;;;5134792;27;20192;-70
2023/05/16 18:29:51;;;;;;;0.40;0.40;;;15.30;99.90;19.50;102312.00;;;;5118890;27;20184;-70
2023/05/16 18:33:09;;;;;;;0.10;0.10;;;15.40;99.90;19.60;102311.00;;;;5134320;27;20291;-70
2023/05/16 18:36:10;;;;;;;0.10;0.10;;;15.60;99.90;18.40;102315.00;;;;5136038;27;20191;-69
2023/05/16 18:38:54;;;;;;;0.40;0.40;;;15.20;99.90;18.50;102356.00;;;;5149087;27;20214;-70
2023/05/16 18:41:55;;;;;;;0.10;0.10;;;15.10;99.90;18.50;102340.00;;;;5126307;28;20188;-70
2023/05/16 18:44:59;;;;;;;0.10;0.10;;;15.00;99.90;18.60;102348.00;;;;5135685;27;20182;-70
2023/05/16 18:47:59;;;;;;;0.10;0.10;;;15.00;99.90;18.80;102342.00;;;;5118999;27;20269;-70
2023/05/16 18:51:00;;;;;;;0.27;0.27;;;15.10;99.90;18.70;102340.00;;;;5134900;27;20641;-70
2023/05/16 18:54:04;;;;;;;0.10;0.10;;;15.00;99.90;18.70;102335.00;;;;5136055;27;20207;-70
2023/05/16 18:57:06;;;;;;;0.20;0.20;;;15.10;99.90;18.90;102340.00;;;;5124522;27;20190;-69